sensor_id;sensor_type;location;lat;lon;timestamp;P1;durP1;ratioP1;P2;durP2;ratioP2
32329;SDS011;18807;52.434;13.238;2023-02-26T00:00:15;0.93;;;0.52;;
32329;SDS011;18807;52.434;13.238;2023-02-26T00:07:54;1.65;;;0.70;;
32329;SDS011;18807;52.434;13.238;2023-02-26T00:15:28;2.05;;;0.75;;
32329;SDS011;18807;52.434;13.238;2023-02-26T00:23:04;1.88;;;0.70;;
32329;SDS011;18807;52.434;13.238;2023-02-26T00:30:38;5.75;;;0.98;;
32329;SDS011;18807;52.434;13.238;2023-02-26T00:38:15;3.45;;;0.90;;
32329;SDS011;18807;52.434;13.238;2023-02-26T00:45:51;1.30;;;0.57;;
32329;SDS011;18807;52.434;13.238;2023-02-26T00:53:35;1.80;;;0.85;;
32329;SDS011;18807;52.434;13.238;2023-02-26T01:01:18;0.75;;;0.47;;
32329;SDS011;18807;52.434;13.238;2023-02-26T01:08:57;1.83;;;0.60;;
32329;SDS011;18807;52.434;13.238;2023-02-26T01:16:36;2.75;;;0.98;;
32329;SDS011;18807;52.434;13.238;2023-02-26T01:24:15;1.73;;;0.75;;
32329;SDS011;18807;52.434;13.238;2023-02-26T01:31:53;2.15;;;0.60;;
32329;SDS011;18807;52.434;13.238;2023-02-26T01:39:36;4.78;;;1.05;;
32329;SDS011;18807;52.434;13.238;2023-02-26T01:47:17;1.95;;;0.40;;
32329;SDS011;18807;52.434;13.238;2023-02-26T01:54:56;1.70;;;0.47;;
32329;SDS011;18807;52.434;13.238;2023-02-26T02:02:30;2.38;;;0.70;;
32329;SDS011;18807;52.434;13.238;2023-02-26T02:10:06;3.80;;;0.68;;
32329;SDS011;18807;52.434;13.238;2023-02-26T02:17:44;3.67;;;0.60;;
32329;SDS011;18807;52.434;13.238;2023-02-26T02:25:30;1.65;;;0.32;;
32329;SDS011;18807;52.434;13.238;2023-02-26T02:33:18;0.80;;;0.65;;
32329;SDS011;18807;52.434;13.238;2023-02-26T02:41:00;4.72;;;0.50;;
32329;SDS011;18807;52.434;13.238;2023-02-26T02:48:42;1.98;;;0.50;;
32329;SDS011;18807;52.434;13.238;2023-02-26T02:56:22;1.77;;;0.60;;
32329;SDS011;18807;52.434;13.238;2023-02-26T03:04:02;1.40;;;0.50;;
32329;SDS011;18807;52.434;13.238;2023-02-26T03:11:40;3.90;;;0.65;;
32329;SDS011;18807;52.434;13.238;2023-02-26T03:19:20;2.85;;;0.75;;
32329;SDS011;18807;52.434;13.238;2023-02-26T03:26:58;1.00;;;0.40;;
32329;SDS011;18807;52.434;13.238;2023-02-26T03:34:57;1.48;;;0.40;;
32329;SDS011;18807;52.434;13.238;2023-02-26T03:42:37;1.75;;;0.45;;
32329;SDS011;18807;52.434;13.238;2023-02-26T03:50:18;0.65;;;0.38;;
32329;SDS011;18807;52.434;13.238;2023-02-26T03:57:57;3.90;;;0.60;;
32329;SDS011;18807;52.434;13.238;2023-02-26T04:05:33;1.98;;;0.50;;
32329;SDS011;18807;52.434;13.238;2023-02-26T04:13:10;1.85;;;0.60;;
32329;SDS011;18807;52.434;13.238;2023-02-26T04:21:03;1.27;;;0.60;;
32329;SDS011;18807;52.434;13.238;2023-02-26T04:28:37;1.77;;;0.43;;
32329;SDS011;18807;52.434;13.238;2023-02-26T04:36:13;6.03;;;0.98;;
32329;SDS011;18807;52.434;13.238;2023-02-26T04:43:47;1.95;;;0.50;;
32329;SDS011;18807;52.434;13.238;2023-02-26T04:51:22;1.75;;;0.40;;
32329;SDS011;18807;52.434;13.238;2023-02-26T04:58:57;1.38;;;0.40;;
32329;SDS011;18807;52.434;13.238;2023-02-26T05:06:32;2.42;;;0.70;;
32329;SDS011;18807;52.434;13.238;2023-02-26T05:14:06;4.38;;;0.68;;
32329;SDS011;18807;52.434;13.238;2023-02-26T05:21:41;3.15;;;0.52;;
32329;SDS011;18807;52.434;13.238;2023-02-26T05:29:33;2.60;;;1.05;;
32329;SDS011;18807;52.434;13.238;2023-02-26T05:52:17;4.10;;;0.55;;
32329;SDS011;18807;52.434;13.238;2023-02-26T05:59:51;5.03;;;0.60;;
32329;SDS011;18807;52.434;13.238;2023-02-26T06:07:26;0.73;;;0.30;;
32329;SDS011;18807;52.434;13.238;2023-02-26T06:15:00;2.75;;;1.00;;
32329;SDS011;18807;52.434;13.238;2023-02-26T06:22:36;2.55;;;0.70;;
32329;SDS011;18807;52.434;13.238;2023-02-26T06:30:10;5.00;;;0.70;;
32329;SDS011;18807;52.434;13.238;2023-02-26T06:37:46;3.28;;;0.60;;
32329;SDS011;18807;52.434;13.238;2023-02-26T06:45:20;2.33;;;0.47;;
32329;SDS011;18807;52.434;13.238;2023-02-26T06:52:57;1.52;;;0.57;;
32329;SDS011;18807;52.434;13.238;2023-02-26T07:00:31;2.38;;;0.40;;
32329;SDS011;18807;52.434;13.238;2023-02-26T07:08:08;4.28;;;0.43;;
32329;SDS011;18807;52.434;13.238;2023-02-26T07:15:42;2.45;;;0.65;;
32329;SDS011;18807;52.434;13.238;2023-02-26T07:23:19;2.80;;;0.70;;
32329;SDS011;18807;52.434;13.238;2023-02-26T07:30:53;1.55;;;0.40;;
32329;SDS011;18807;52.434;13.238;2023-02-26T07:38:29;2.15;;;0.47;;
32329;SDS011;18807;52.434;13.238;2023-02-26T07:46:03;3.03;;;0.88;;
32329;SDS011;18807;52.434;13.238;2023-02-26T07:53:38;5.38;;;0.60;;
32329;SDS011;18807;52.434;13.238;2023-02-26T08:01:12;1.55;;;0.50;;
32329;SDS011;18807;52.434;13.238;2023-02-26T08:16:22;1.08;;;0.30;;
32329;SDS011;18807;52.434;13.238;2023-02-26T08:23:57;4.05;;;0.80;;
32329;SDS011;18807;52.434;13.238;2023-02-26T08:31:32;0.73;;;0.47;;
32329;SDS011;18807;52.434;13.238;2023-02-26T08:39:08;3.33;;;0.40;;
32329;SDS011;18807;52.434;13.238;2023-02-26T08:46:42;1.70;;;0.50;;
32329;SDS011;18807;52.434;13.238;2023-02-26T08:54:17;1.08;;;0.50;;
32329;SDS011;18807;52.434;13.238;2023-02-26T09:01:51;2.70;;;0.60;;
32329;SDS011;18807;52.434;13.238;2023-02-26T09:09:27;0.38;;;0.32;;
32329;SDS011;18807;52.434;13.238;2023-02-26T09:17:01;2.10;;;0.47;;
32329;SDS011;18807;52.434;13.238;2023-02-26T09:24:36;1.65;;;0.52;;
32329;SDS011;18807;52.434;13.238;2023-02-26T09:32:10;5.18;;;1.17;;
32329;SDS011;18807;52.434;13.238;2023-02-26T09:39:46;0.77;;;0.40;;
32329;SDS011;18807;52.434;13.238;2023-02-26T09:47:21;4.30;;;0.75;;
32329;SDS011;18807;52.434;13.238;2023-02-26T09:55:02;1.15;;;0.65;;
32329;SDS011;18807;52.434;13.238;2023-02-26T10:02:44;2.70;;;0.50;;
32329;SDS011;18807;52.434;13.238;2023-02-26T10:10:32;3.88;;;0.60;;
32329;SDS011;18807;52.434;13.238;2023-02-26T10:18:12;3.10;;;0.55;;
32329;SDS011;18807;52.434;13.238;2023-02-26T10:26:00;0.98;;;0.60;;
32329;SDS011;18807;52.434;13.238;2023-02-26T10:33:51;4.57;;;0.65;;
32329;SDS011;18807;52.434;13.238;2023-02-26T10:41:33;1.52;;;0.50;;
32329;SDS011;18807;52.434;13.238;2023-02-26T10:49:19;3.22;;;0.40;;
32329;SDS011;18807;52.434;13.238;2023-02-26T10:57:07;0.65;;;0.30;;
32329;SDS011;18807;52.434;13.238;2023-02-26T11:04:48;0.45;;;0.40;;
32329;SDS011;18807;52.434;13.238;2023-02-26T11:12:39;1.98;;;0.30;;
32329;SDS011;18807;52.434;13.238;2023-02-26T11:20:15;1.60;;;0.25;;
32329;SDS011;18807;52.434;13.238;2023-02-26T11:27:58;1.85;;;0.50;;
32329;SDS011;18807;52.434;13.238;2023-02-26T11:35:35;0.45;;;0.25;;
32329;SDS011;18807;52.434;13.238;2023-02-26T11:43:11;5.28;;;0.77;;
32329;SDS011;18807;52.434;13.238;2023-02-26T11:50:50;0.85;;;0.52;;
32329;SDS011;18807;52.434;13.238;2023-02-26T11:58:30;4.05;;;0.65;;
32329;SDS011;18807;52.434;13.238;2023-02-26T12:06:10;0.95;;;0.35;;
32329;SDS011;18807;52.434;13.238;2023-02-26T12:13:54;1.10;;;0.30;;
32329;SDS011;18807;52.434;13.238;2023-02-26T12:21:49;1.55;;;0.60;;
32329;SDS011;18807;52.434;13.238;2023-02-26T12:29:35;2.78;;;0.50;;
32329;SDS011;18807;52.434;13.238;2023-02-26T12:37:24;1.40;;;0.32;;
32329;SDS011;18807;52.434;13.238;2023-02-26T12:45:11;2.53;;;0.40;;
32329;SDS011;18807;52.434;13.238;2023-02-26T12:53:23;2.58;;;0.52;;
32329;SDS011;18807;52.434;13.238;2023-02-26T13:09:35;1.85;;;0.80;;
32329;SDS011;18807;52.434;13.238;2023-02-26T13:17:19;2.53;;;0.83;;
32329;SDS011;18807;52.434;13.238;2023-02-26T13:25:00;0.20;;;0.20;;
32329;SDS011;18807;52.434;13.238;2023-02-26T13:32:36;0.95;;;0.25;;
32329;SDS011;18807;52.434;13.238;2023-02-26T13:48:16;1.67;;;0.55;;
32329;SDS011;18807;52.434;13.238;2023-02-26T13:56:07;0.60;;;0.40;;
32329;SDS011;18807;52.434;13.238;2023-02-26T14:03:47;0.60;;;0.30;;
32329;SDS011;18807;52.434;13.238;2023-02-26T14:11:36;1.52;;;0.60;;
32329;SDS011;18807;52.434;13.238;2023-02-26T14:19:20;1.55;;;0.30;;
32329;SDS011;18807;52.434;13.238;2023-02-26T14:27:06;1.50;;;0.40;;
32329;SDS011;18807;52.434;13.238;2023-02-26T14:35:05;3.08;;;0.40;;
32329;SDS011;18807;52.434;13.238;2023-02-26T14:42:46;1.27;;;0.40;;
32329;SDS011;18807;52.434;13.238;2023-02-26T14:50:23;1.92;;;0.35;;
32329;SDS011;18807;52.434;13.238;2023-02-26T14:58:08;2.40;;;0.82;;
32329;SDS011;18807;52.434;13.238;2023-02-26T15:06:14;1.08;;;0.70;;
32329;SDS011;18807;52.434;13.238;2023-02-26T15:14:16;2.03;;;0.60;;
32329;SDS011;18807;52.434;13.238;2023-02-26T15:22:09;2.05;;;0.73;;
32329;SDS011;18807;52.434;13.238;2023-02-26T15:29:54;0.90;;;0.40;;
32329;SDS011;18807;52.434;13.238;2023-02-26T15:37:29;5.57;;;1.95;;
32329;SDS011;18807;52.434;13.238;2023-02-26T15:45:08;2.55;;;1.27;;
32329;SDS011;18807;52.434;13.238;2023-02-26T15:52:46;1.88;;;1.10;;
32329;SDS011;18807;52.434;13.238;2023-02-26T16:00:28;1.10;;;0.50;;
32329;SDS011;18807;52.434;13.238;2023-02-26T16:08:05;1.25;;;0.45;;
32329;SDS011;18807;52.434;13.238;2023-02-26T16:15:44;2.03;;;0.50;;
32329;SDS011;18807;52.434;13.238;2023-02-26T16:23:21;0.43;;;0.30;;
32329;SDS011;18807;52.434;13.238;2023-02-26T16:30:58;0.90;;;0.30;;
32329;SDS011;18807;52.434;13.238;2023-02-26T16:38:42;3.47;;;1.33;;
32329;SDS011;18807;52.434;13.238;2023-02-26T16:46:20;0.95;;;0.40;;
32329;SDS011;18807;52.434;13.238;2023-02-26T16:54:04;2.15;;;0.57;;
32329;SDS011;18807;52.434;13.238;2023-02-26T17:09:36;1.13;;;0.60;;
32329;SDS011;18807;52.434;13.238;2023-02-26T17:17:30;1.25;;;0.60;;
32329;SDS011;18807;52.434;13.238;2023-02-26T17:25:04;1.05;;;0.47;;
32329;SDS011;18807;52.434;13.238;2023-02-26T17:32:39;1.42;;;0.68;;
32329;SDS011;18807;52.434;13.238;2023-02-26T17:40:15;0.98;;;0.40;;
32329;SDS011;18807;52.434;13.238;2023-02-26T17:47:54;2.55;;;1.67;;
32329;SDS011;18807;52.434;13.238;2023-02-26T17:55:27;3.10;;;1.33;;
32329;SDS011;18807;52.434;13.238;2023-02-26T18:03:03;1.25;;;0.98;;
32329;SDS011;18807;52.434;13.238;2023-02-26T18:10:37;2.05;;;0.65;;
32329;SDS011;18807;52.434;13.238;2023-02-26T18:18:13;1.80;;;0.85;;
32329;SDS011;18807;52.434;13.238;2023-02-26T18:25:48;2.20;;;1.00;;
32329;SDS011;18807;52.434;13.238;2023-02-26T18:33:25;3.15;;;1.85;;
32329;SDS011;18807;52.434;13.238;2023-02-26T18:40:59;2.05;;;0.80;;
32329;SDS011;18807;52.434;13.238;2023-02-26T18:48:34;1.20;;;0.60;;
32329;SDS011;18807;52.434;13.238;2023-02-26T18:56:08;1.13;;;0.60;;
32329;SDS011;18807;52.434;13.238;2023-02-26T19:03:44;1.90;;;0.70;;
32329;SDS011;18807;52.434;13.238;2023-02-26T19:11:35;1.17;;;0.63;;
32329;SDS011;18807;52.434;13.238;2023-02-26T19:19:11;1.05;;;0.73;;
32329;SDS011;18807;52.434;13.238;2023-02-26T19:26:45;2.00;;;1.27;;
32329;SDS011;18807;52.434;13.238;2023-02-26T19:34:21;1.90;;;1.00;;
32329;SDS011;18807;52.434;13.238;2023-02-26T19:41:56;1.08;;;0.88;;
32329;SDS011;18807;52.434;13.238;2023-02-26T20:04:41;2.65;;;1.50;;
32329;SDS011;18807;52.434;13.238;2023-02-26T20:12:15;6.32;;;2.78;;
32329;SDS011;18807;52.434;13.238;2023-02-26T20:19:50;3.53;;;1.85;;
32329;SDS011;18807;52.434;13.238;2023-02-26T20:27:24;2.53;;;1.45;;
32329;SDS011;18807;52.434;13.238;2023-02-26T20:35:01;3.88;;;2.00;;
32329;SDS011;18807;52.434;13.238;2023-02-26T20:42:52;6.07;;;3.45;;
32329;SDS011;18807;52.434;13.238;2023-02-26T20:58:02;5.18;;;2.22;;
32329;SDS011;18807;52.434;13.238;2023-02-26T21:05:38;4.47;;;1.75;;
32329;SDS011;18807;52.434;13.238;2023-02-26T21:13:13;3.95;;;2.00;;
32329;SDS011;18807;52.434;13.238;2023-02-26T21:20:48;3.55;;;2.38;;
32329;SDS011;18807;52.434;13.238;2023-02-26T21:28:22;4.88;;;2.50;;
32329;SDS011;18807;52.434;13.238;2023-02-26T21:35:58;4.50;;;2.70;;
32329;SDS011;18807;52.434;13.238;2023-02-26T21:43:32;5.18;;;2.17;;
32329;SDS011;18807;52.434;13.238;2023-02-26T21:51:07;2.42;;;1.75;;
32329;SDS011;18807;52.434;13.238;2023-02-26T21:58:41;3.90;;;2.42;;
32329;SDS011;18807;52.434;13.238;2023-02-26T22:13:50;4.63;;;2.28;;
32329;SDS011;18807;52.434;13.238;2023-02-26T22:21:26;4.80;;;2.17;;
32329;SDS011;18807;52.434;13.238;2023-02-26T22:29:00;5.88;;;2.95;;
32329;SDS011;18807;52.434;13.238;2023-02-26T22:36:36;4.28;;;2.58;;
32329;SDS011;18807;52.434;13.238;2023-02-26T22:44:10;2.45;;;2.03;;
32329;SDS011;18807;52.434;13.238;2023-02-26T22:51:46;4.97;;;2.40;;
32329;SDS011;18807;52.434;13.238;2023-02-26T22:59:20;4.20;;;2.40;;
32329;SDS011;18807;52.434;13.238;2023-02-26T23:22:04;3.40;;;2.10;;
32329;SDS011;18807;52.434;13.238;2023-02-26T23:29:40;3.30;;;2.13;;
32329;SDS011;18807;52.434;13.238;2023-02-26T23:37:17;4.07;;;2.05;;
32329;SDS011;18807;52.434;13.238;2023-02-26T23:44:51;3.58;;;2.03;;
32329;SDS011;18807;52.434;13.238;2023-02-26T23:52:26;4.00;;;1.40;;
